Flight Track Log - Related Links

Times and Time Zones

All times are in EDT time to prevent confusion due to time zone crossing. See the UAL3732 flight status page for this flight to view local times or setup timezone preferences in your user account.

Time Position Orientation Groundspeed Altitude Reporting Facility
EDT Latitude Longitude Course Direction KTS MPH feet Rate Location/Type
Sun 06:14:00 AM 44.4284 -73.5833 259° West  Level Estimated
Sun 06:14:12 AM 44.3814 -73.2225 257° West 229 264 5,800  Level Boston Center
Sun 06:15:00 AM 44.4136 -73.7265 255° West  Level Estimated
Sun 06:15:10 AM 44.3683 -73.3147 259° West 241 277 8,300  Level Boston Center
Sun 06:16:00 AM 44.3781 -73.8623 250° West  Level FlightAware Approximate
Sun 06:16:12 AM 44.3533 -73.4183 259° West 252 290 11,000  Level Boston Center
Sun 06:17:00 AM 44.3424 -73.9980 250° West  Level FlightAware Approximate
Sun 06:17:14 AM 44.3389 -73.5219 259° West 276 318 12,700  Level Boston Center
Sun 06:18:00 AM 44.3271 -74.1440 258° West  Level Estimated
Sun 06:18:12 AM 44.3219 -73.6442 259° West 322 371 14,300  Level Boston Center
Sun 06:19:00 AM 44.3117 -74.2899 257° West  Level Estimated
Sun 06:19:15 AM 44.3047 -73.7622 259° West 340 391 16,200  Level Boston Center
Sun 06:20:15 AM 44.2850 -73.8983 259° West 358 412 18,300 1,950 Climbing Boston Center
Sun 06:21:15 AM 44.2647 -74.0350 258° West 360 414 20,100 1,627 Climbing Boston Center
Sun 06:22:13 AM 44.2450 -74.1725 259° West 368 423 21,500 1,563 Climbing Boston Center
Sun 06:23:14 AM 44.2231 -74.3172 258° West 379 436 23,200 1,587 Climbing Boston Center
Sun 06:24:14 AM 44.1972 -74.4931 258° West 386 444 24,700 1,339 Climbing Boston Center
Sun 06:25:15 AM 44.1758 -74.6431 259° West 394 453 25,900 1,091 Climbing Boston Center
Sun 06:26:15 AM 44.1531 -74.7956 258° West 402 463 26,900 984 Climbing Boston Center
Sun 06:27:17 AM 44.1292 -74.9506 258° West 410 472 27,900 976 Climbing Boston Center
Sun 06:28:18 AM 44.1047 -75.1033 257° West 409 471 28,900 984 Climbing Boston Center
Sun 06:29:19 AM 44.0797 -75.2608 258° West 420 483 29,900 984 Climbing Boston Center
Sun 06:30:20 AM 44.0547 -75.4172 258° West 418 481 30,900 992 Climbing Boston Center
Sun 06:31:20 AM 44.0300 -75.5728 258° West 417 480 31,900 1,017 Climbing Boston Center
Sun 06:32:18 AM 44.0058 -75.7272 258° West 413 475 32,900 1,000 Climbing Boston Center
Sun 06:33:20 AM 43.9814 -75.8800 258° West 410 472 33,900 968 Climbing Boston Center
Sun 06:34:22 AM 43.9567 -76.0306 257° West 405 466 34,900 984 Climbing Boston Center
Sun 06:35:22 AM 43.9408 -76.1794 262° West 395 455 35,900 545 Climbing Boston Center
Sun 06:36:23 AM 43.9269 -76.3314 263° West 400 460 36,000 50 Climbing Boston Center
Sun 06:37:23 AM 43.9133 -76.4894 263° West 414 476 36,000  Level Boston Center
Sun 06:39:11 AM 43.8833 -76.7833 262° West 420 483 36,000  Level Toronto Center
Sun 06:40:11 AM 43.8667 -76.9333 261° West 410 472 36,000  Level Toronto Center
Sun 06:41:11 AM 43.8333 -77.0833 253° West 410 472 36,000  Level Toronto Center
Sun 06:42:11 AM 43.8167 -77.2500 262° West 410 472 36,000  Level Toronto Center
Sun 06:43:11 AM 43.8167 -77.4167 270° West 410 472 36,000  Level Toronto Center
Sun 06:44:11 AM 43.8000 -77.5500 260° West 420 483 36,000  Level Toronto Center
Sun 06:45:11 AM 43.7833 -77.7333 263° West 420 483 36,000  Level Toronto Center
Sun 06:46:11 AM 43.7667 -77.8833 261° West 420 483 36,000  Level Toronto Center
Sun 06:47:11 AM 43.7500 -78.0333 261° West 410 472 36,000  Level Toronto Center
Sun 06:48:11 AM 43.7333 -78.2000 262° West 410 472 36,000  Level Toronto Center
Sun 06:49:11 AM 43.7000 -78.3667 255° West 410 472 36,000  Level Toronto Center
Sun 06:50:11 AM 43.7000 -78.5333 270° West 410 472 36,000  Level Toronto Center
Sun 06:51:11 AM 43.6833 -78.6667 260° West 410 472 36,000  Level Toronto Center
Sun 06:52:11 AM 43.6667 -78.8333 262° West 410 472 36,000  Level Toronto Center
Sun 06:53:11 AM 43.6500 -78.9833 261° West 410 472 36,000  Level Toronto Center
Sun 06:54:11 AM 43.6333 -79.1500 262° West 410 472 36,000  Level Toronto Center
Sun 06:55:11 AM 43.6333 -79.2833 270° West 410 472 36,000  Level Toronto Center
Sun 06:56:11 AM 43.6167 -79.4500 262° West 410 472 36,000  Level Toronto Center
Sun 06:57:11 AM 43.6000 -79.6167 262° West 400 460 36,000  Level Toronto Center
Sun 06:58:11 AM 43.5833 -79.7667 261° West 400 460 36,000  Level Toronto Center
Sun 06:59:11 AM 43.5667 -79.9167 261° West 410 472 36,000  Level Toronto Center
Sun 07:00:11 AM 43.5333 -80.0667 253° West 410 472 36,000  Level Toronto Center
Sun 07:01:11 AM 43.5167 -80.2333 262° West 410 472 36,000  Level Toronto Center
Sun 07:02:11 AM 43.5000 -80.3833 261° West 410 472 36,000  Level Toronto Center
Sun 07:03:11 AM 43.4833 -80.5333 261° West 410 472 36,000  Level Toronto Center
Sun 07:04:11 AM 43.4500 -80.6833 253° West 410 472 36,000  Level Toronto Center
Sun 07:05:11 AM 43.4167 -80.8500 255° West 410 472 36,000  Level Toronto Center
Sun 07:06:11 AM 43.4000 -80.9833 260° West 410 472 36,000  Level Toronto Center
Sun 07:07:11 AM 43.3667 -81.1500 255° West 410 472 36,000  Level Toronto Center
Sun 07:08:11 AM 43.3500 -81.3000 261° West 410 472 36,000  Level Toronto Center
Sun 07:09:11 AM 43.3333 -81.4500 261° West 410 472 36,000  Level Toronto Center
Sun 07:10:11 AM 43.3167 -81.6333 263° West 410 472 36,000  Level Toronto Center
Sun 07:11:11 AM 43.2833 -81.7667 251° West 410 472 36,000  Level Toronto Center
Sun 07:12:11 AM 43.2500 -81.9167 253° West 410 472 36,000  Level Toronto Center
Sun 07:13:11 AM 43.2333 -82.0833 262° West 410 472 36,000  Level Toronto Center
Sun 07:14:11 AM 43.2000 -82.2167 251° West 420 483 36,000  Level Toronto Center
Sun 07:15:20 AM 43.1950 -82.3894 268° West 418 481 36,000 -369 Level Cleveland Center
Sun 07:16:21 AM 43.1686 -82.5731 259° West 414 476 35,200 -1,131 Descending Cleveland Center
Sun 07:17:22 AM 43.1478 -82.7286 260° West 417 480 33,700 -1,475 Descending Cleveland Center
Sun 07:18:23 AM 43.1264 -82.8828 259° West 416 479 32,200 -836 Descending Cleveland Center
Sun 07:19:24 AM 43.1061 -83.0367 260° West 413 475 32,000 -98 Descending Cleveland Center
Sun 07:20:25 AM 43.0847 -83.1889 259° West 411 473 32,000  Level Cleveland Center
Sun 07:21:26 AM 43.0644 -83.3408 260° West 409 471 32,000  Level Cleveland Center
Sun 07:22:27 AM 43.0436 -83.4933 259° West 411 473 32,000  Level Cleveland Center
Sun 07:23:28 AM 43.0219 -83.6458 259° West 413 475 32,000  Level Cleveland Center
Sun 07:24:28 AM 42.9986 -83.7992 258° West 415 478 32,000  Level Cleveland Center
Sun 07:25:30 AM 42.9767 -83.9528 259° West 415 478 32,000  Level Cleveland Center
Sun 07:26:30 AM 42.9497 -84.1372 259° West 415 478 32,000  Level Cleveland Center
Sun 07:27:31 AM 42.9283 -84.2903 259° West 414 476 32,000  Level Cleveland Center
Sun 07:28:32 AM 42.9083 -84.4261 259° West 417 480 32,000  Level Cleveland Center
Sun 07:29:09 AM 42.8939 -84.5194 258° West 417 480 32,000  Level Chicago Center
Sun 07:30:10 AM 42.8756 -84.6747 261° West 415 478 32,000  Level Chicago Center
Sun 07:31:10 AM 42.8589 -84.8289 262° West 414 476 32,000  Level Chicago Center
Sun 07:32:11 AM 42.8392 -85.0147 262° West 413 475 32,000 -49 Level Chicago Center
Sun 07:33:12 AM 42.8228 -85.1714 262° West 416 479 31,900 -836 Descending Chicago Center
Sun 07:34:13 AM 42.8053 -85.3283 261° West 421 484 30,300 -1,636 Descending Chicago Center
Sun 07:35:13 AM 42.7881 -85.4856 262° West 419 482 28,600 -1,686 Descending Chicago Center
Sun 07:36:14 AM 42.7603 -85.6397 256° West 418 481 26,900 -1,672 Descending Chicago Center
Sun 07:37:15 AM 42.7339 -85.7856 256° West 404 465 25,200 -1,672 Descending Chicago Center
Sun 07:38:16 AM 42.7114 -85.9131 257° West 359 413 23,500 -1,574 Descending Chicago Center
Sun 07:39:17 AM 42.6883 -86.0394 256° West 344 396 22,000 -1,488 Descending Chicago Center
Sun 07:40:17 AM 42.6658 -86.1686 257° West 348 400 20,500 -1,488 Descending Chicago Center
Sun 07:41:18 AM 42.6428 -86.2922 256° West 340 391 19,000 -1,426 Descending Chicago Center
Sun 07:42:19 AM 42.6200 -86.4075 255° West 319 367 17,600 -1,426 Descending Chicago Center
Sun 07:43:20 AM 42.5983 -86.5228 256° West 316 364 16,100 -1,525 Descending Chicago Center
Sun 07:44:21 AM 42.5769 -86.6372 256° West 312 359 14,500 -1,426 Descending Chicago Center
Sun 07:45:22 AM 42.5553 -86.7489 255° West 308 354 13,200 -1,140 Descending Chicago Center
Sun 07:46:22 AM 42.5258 -86.8575 250° West 307 353 12,200 -992 Descending Chicago Center
Sun 07:47:23 AM 42.4958 -86.9658 249° West 308 354 11,200 -984 Descending Chicago Center
Sun 07:48:24 AM 42.4656 -87.0719 249° West 304 350 10,200 -738 Descending Chicago Center
Sun 07:49:25 AM 42.4378 -87.1739 250° West 291 335 9,700 -590 Descending Chicago Center
Sun 07:50:26 AM 42.4125 -87.2661 250° West 266 306 9,000 -492 Descending Chicago Center
Sun 07:51:27 AM 42.3878 -87.3553 249° West 256 295 8,700 -492 Descending Chicago Center
Sun 07:52:28 AM 42.3600 -87.4581 250° West 261 300 8,000 -893 Descending Chicago Center
Sun 07:53:28 AM 42.2975 -87.5078 210° Southwest 283 326 6,900 -992 Descending Chicago Center
Sun 07:54:29 AM 42.2214 -87.5303 192° South 281 323 6,000 -1,033 Descending Chicago Center
Sun 07:55:30 AM 42.1494 -87.5489 191° South 266 306 4,800 -984 Descending Chicago Center
Sun 07:56:31 AM 42.0911 -87.5939 210° Southwest 244 281 4,000 -458 Descending Chicago Center
Sun 07:57:28 AM 42.0333 -87.6500 216° Southwest 205 236 3,900 -439 Descending Chicago TRACON
Sun 07:58:34 AM 42.0000 -87.7167 236° Southwest 192 221 3,100 -619 Descending Chicago TRACON
Sun 07:59:34 AM 42.0000 -87.7833 270° West 156 180 2,600 -600 Descending Chicago TRACON
Sun 08:00:34 AM 42.0000 -87.8167 270° West 119 137 1,900 -700 Descending Chicago TRACON
Sun 08:01:34 AM 42.0000 -87.8667 270° West 122 140 1,200 -700 Descending Chicago TRACON

Login

Don't have an account? Register now (free) for customized features, flight alerts, and more!